• Join FlightAware (Why Join?)
  • Login
  • US Flag GB Flag 
12:56 EDT


 

Airport Tracker/Info


-or-


 

Live Flight TrackerFlight Track Log ✈ AAY883 ✈ 05-May-2013 ✈ KGRR - KPIE

Flight Track Log - Related Links

Times and Time Zones

All times are in EDT time to prevent confusion due to time zone crossing. See the AAY883 flight status page for this flight to view local times or setup timezone preferences in your user account.

Time Position Orientation Groundspeed Altitude Reporting Facility
EDT Latitude Longitude Course Direction KTS MPH feet Rate Location/Type
18:40 42.8122 -85.5114 173° South 193 222 3,000  Level Chicago Center
18:41 42.7506 -85.4750 157° South 240 276 5,300 2,460 Climbing Chicago Center
18:42 42.6978 -85.4100 138° Southeast 254 292 8,100 2,520 Climbing Chicago Center
18:43 42.6419 -85.3422 138° Southeast 265 305 10,600 1,680 Climbing Chicago Center
18:44 42.5742 -85.2667 141° Southeast 311 358 11,700 1,500 Climbing Chicago Center
18:46 41.8321 -85.2840 173° South  Level Estimated
18:46 42.4711 -85.2514 174° South 367 422 13,700  Level Chicago Center
18:47 42.3400 -85.2422 177° South 392 451 16,600 2,280 Climbing Chicago Center
18:48 42.2267 -85.2389 179° South 404 465 18,500 1,740 Climbing Chicago Center
18:49 42.1100 -85.2328 178° South 417 480 20,300 1,560 Climbing Chicago Center
18:50 41.9894 -85.2294 179° South 429 494 21,800 1,560 Climbing Chicago Center
18:51 41.8506 -85.2250 179° South 440 506 23,600 1,620 Climbing Chicago Center
18:52 41.7258 -85.2183 178° South 443 510 25,200 1,380 Climbing Chicago Center
18:53 41.6000 -85.2111 178° South 443 510 26,500 1,320 Climbing Chicago Center
18:54 41.4753 -85.2011 177° South 441 507 28,000 1,320 Climbing Chicago Center
18:55 41.3553 -85.1869 175° South 432 497 29,300 1,140 Climbing Chicago Center
18:56 41.2375 -85.1725 175° South 427 491 30,400 1,020 Climbing Chicago Center
18:57 41.1206 -85.1589 175° South 424 488 31,500 960 Climbing Chicago Center
18:58 41.0053 -85.1472 176° South 419 482 32,400 720 Climbing Chicago Center
18:59 40.8658 -85.1350 176° South 418 481 33,000 240 Climbing Chicago Center
19:00 40.7503 -85.1231 176° South 417 480 33,000  Level Chicago Center
19:01 40.6289 -85.1097 175° South 417 480 33,000  Level Chicago Center
19:02 40.5828 -85.1028 173° South 417 480 33,000  Level Indianapolis Center
19:03 40.4428 -85.0894 176° South 420 483 33,000  Level Indianapolis Center
19:04 40.3261 -85.0789 176° South 420 483 33,000  Level Indianapolis Center
19:05 40.2097 -85.0672 176° South 420 483 33,000  Level Indianapolis Center
19:06 40.0228 -85.0464 175° South 423 487 33,000  Level Chicago Center
19:07 39.9764 -85.0411 175° South 420 483 33,000  Level Indianapolis Center
19:08 39.8594 -85.0286 175° South 420 483 33,000  Level Indianapolis Center
19:09 39.7433 -85.0164 175° South 420 483 33,000  Level Indianapolis Center
19:10 39.6036 -85.0039 176° South 419 482 33,000  Level Indianapolis Center
19:11 39.4867 -84.9922 176° South 420 483 33,000  Level Indianapolis Center
19:12 39.3719 -84.9792 175° South 417 480 33,000  Level Indianapolis Center
19:13 39.2569 -84.9675 176° South 415 478 33,000  Level Indianapolis Center
19:14 39.1439 -84.9544 175° South 411 473 33,000  Level Indianapolis Center
19:15 39.0322 -84.9444 176° South 405 466 33,000  Level Indianapolis Center
19:17 38.8628 -84.9221 174° South  Level FlightAware Approximate
19:17 38.7883 -84.9211 174° South 398 458 33,000  Level Indianapolis Center
19:18 38.6794 -84.9083 175° South 395 455 33,000  Level Indianapolis Center
19:19 38.5731 -84.8975 175° South 385 443 33,000  Level Indianapolis Center
19:20 38.4633 -84.8867 176° South 389 448 33,000  Level Indianapolis Center
19:21 38.3539 -84.8772 176° South 394 453 33,000  Level Indianapolis Center
19:22 38.2283 -84.8636 175° South 391 450 33,000  Level Indianapolis Center
19:23 38.1164 -84.8508 175° South 398 458 33,000  Level Indianapolis Center
19:24 38.0064 -84.8403 176° South 396 456 33,000  Level Indianapolis Center
19:25 37.8931 -84.8306 176° South 405 466 33,000  Level Indianapolis Center
19:26 37.7797 -84.8206 176° South 406 467 33,000  Level Indianapolis Center
19:27 37.6689 -84.8083 175° South 401 461 33,000  Level Indianapolis Center
19:28 37.5397 -84.7967 176° South 400 460 33,000  Level Indianapolis Center
19:29 37.4289 -84.7833 175° South 400 460 33,000  Level Indianapolis Center
19:30 37.3186 -84.7744 176° South 396 456 33,000  Level Indianapolis Center
19:31 37.2072 -84.7644 176° South 399 459 33,000  Level Indianapolis Center
19:32 37.0967 -84.7542 176° South 398 458 33,000  Level Indianapolis Center
19:34 36.9837 -84.7405 174° South  Level FlightAware Approximate
19:35 36.8594 -84.7308 174° South 399 459 33,000  Level Indianapolis Center
19:36 36.7489 -84.7203 176° South 397 457 33,000  Level Indianapolis Center
19:37 36.6386 -84.7100 176° South 398 458 33,000  Level Indianapolis Center
19:38 36.5297 -84.6986 175° South 393 452 33,000  Level Indianapolis Center
19:39 36.4192 -84.6892 176° South 396 456 33,000  Level Indianapolis Center
19:40 36.3097 -84.6783 175° South 395 455 33,000  Level Indianapolis Center
19:41 36.2000 -84.6669 175° South 395 455 33,000  Level Indianapolis Center
19:41 36.1089 -84.6581 175° South 401 461 33,000  Level Atlanta Center
19:42 35.9983 -84.6497 177° South 401 461 33,000  Level Atlanta Center
19:43 35.8900 -84.6411 176° South 406 467 33,000  Level Atlanta Center
19:44 35.7794 -84.6325 176° South 406 467 33,000  Level Atlanta Center
19:45 35.6606 -84.6214 176° South 406 467 33,000  Level Atlanta Center
19:46 35.5500 -84.6081 174° South 406 467 33,000  Level Atlanta Center
19:47 35.4458 -84.5997 176° South 401 461 33,000  Level Atlanta Center
19:48 35.3353 -84.5886 175° South 401 461 33,000  Level Atlanta Center
19:49 35.2289 -84.5828 177° South 401 461 33,000  Level Atlanta Center
19:50 35.1183 -84.5719 175° South 396 456 33,000  Level Atlanta Center
19:51 35.0119 -84.5611 175° South 396 456 33,000  Level Atlanta Center
19:52 34.9036 -84.5503 175° South 396 456 33,000  Level Atlanta Center
19:53 34.7931 -84.5397 176° South 396 456 33,000  Level Atlanta Center
19:54 34.6825 -84.5314 176° South 402 463 33,000  Level Atlanta Center
19:55 34.5717 -84.5256 178° South 402 463 33,000  Level Atlanta Center
19:56 34.4611 -84.5225 179° South 407 468 33,000  Level Atlanta Center
19:57 34.3486 -84.5169 178° South 402 463 33,000  Level Atlanta Center
19:58 34.2381 -84.5111 178° South 402 463 33,000  Level Atlanta Center
19:59 34.1253 -84.5081 179° South 402 463 33,000  Level Atlanta Center
20:00 34.0125 -84.5050 179° South 402 463 33,000  Level Atlanta Center
20:01 33.8978 -84.5017 179° South 407 468 33,000  Level Atlanta Center
20:02 33.7892 -84.4961 178° South 401 461 33,000  Level Atlanta Center
20:03 33.6767 -84.4906 178° South 408 470 33,000  Level Atlanta Center
20:04 33.5639 -84.4875 179° South 403 464 33,000  Level Atlanta Center
20:05 33.4553 -84.4844 179° South 398 458 33,000  Level Atlanta Center
20:06 33.3467 -84.4814 179° South 398 458 33,000  Level Atlanta Center
20:07 33.2383 -84.4733 176° South 398 458 33,000  Level Atlanta Center
20:08 33.1278 -84.4556 172° South 398 458 33,000  Level Atlanta Center
20:09 33.0214 -84.4328 170° South 398 458 33,000  Level Atlanta Center
20:10 32.9150 -84.4150 172° South 398 458 33,000  Level Atlanta Center
20:11 32.8064 -84.3997 173° South 393 452 33,000  Level Atlanta Center
20:12 32.7083 -84.3844 173° South 393 452 33,000  Level Atlanta Center
20:13 32.5958 -84.3642 171° South 399 459 33,000  Level Atlanta Center
20:14 32.4831 -84.3417 170° South 406 467 33,000  Level Atlanta Center
20:17 32.1903 -84.2894 171° South 413 475 33,000  Level Jacksonville Center
20:18 32.0756 -84.2731 173° South 413 475 33,000  Level Jacksonville Center
20:19 31.9608 -84.2517 171° South 413 475 33,000  Level Jacksonville Center
20:20 31.8483 -84.2328 172° South 413 475 33,000  Level Jacksonville Center
20:21 31.7442 -84.2167 173° South 413 475 33,000  Level Jacksonville Center
20:22 31.6317 -84.1981 172° South 413 475 33,000  Level Jacksonville Center
20:23 31.5192 -84.1794 172° South 413 475 33,000  Level Jacksonville Center
20:24 31.4064 -84.1558 170° South 413 475 33,000  Level Jacksonville Center
20:25 31.2919 -84.1397 173° South 413 475 33,000  Level Jacksonville Center
20:26 31.1792 -84.1189 171° South 413 475 33,000  Level Jacksonville Center
20:27 31.0625 -84.1003 172° South 413 475 33,000  Level Jacksonville Center
20:28 30.9478 -84.0819 172° South 413 475 33,000  Level Jacksonville Center
20:29 30.8311 -84.0611 171° South 418 481 33,000  Level Jacksonville Center
20:30 30.7144 -84.0428 172° South 423 487 33,000  Level Jacksonville Center
20:31 30.5978 -84.0219 171° South 423 487 33,000 -60 Level Jacksonville Center
20:32 30.4831 -84.0039 172° South 423 487 32,900  Descending Jacksonville Center
20:33 30.3664 -83.9831 171° South 423 487 33,000  Climbing Jacksonville Center
20:34 30.2494 -83.9675 173° South 423 487 32,900 -60 Descending Jacksonville Center
20:35 30.1328 -83.9469 171° South 423 487 32,900  Level Jacksonville Center
20:36 30.0158 -83.9289 172° South 423 487 32,900  Level Jacksonville Center
20:37 29.8972 -83.9108 172° South 428 493 32,900  Level Jacksonville Center
20:38 29.7783 -83.8761 166° South 428 493 33,000  Climbing Jacksonville Center
20:39 29.6683 -83.8033 150° Southeast 434 499 33,000 -60 Level Jacksonville Center
20:40 29.5581 -83.7258 149° Southeast 445 512 32,900 -300 Descending Jacksonville Center
20:41 29.4500 -83.6558 151° Southeast 456 525 32,400 -1,560 Descending Jacksonville Center
20:42 29.3397 -83.5881 152° Southeast 456 525 29,900 -2,700 Descending Jacksonville Center
20:43 29.2253 -83.5161 151° Southeast 456 525 27,100 -2,340 Descending Jacksonville Center
20:44 29.1172 -83.4486 151° Southeast 456 525 25,200 -1,800 Descending Jacksonville Center
20:45 29.0150 -83.3769 148° Southeast 445 512 23,500 -1,740 Descending Jacksonville Center
20:46 28.9111 -83.3125 151° Southeast 433 498 21,800 -1,980 Descending Jacksonville Center
20:47 28.8028 -83.2456 152° Southeast 420 483 19,600 -2,100 Descending Jacksonville Center
20:48 28.7047 -83.1861 152° Southeast 408 470 17,700 -1,740 Descending Jacksonville Center
20:50 28.5500 -83.0833 150° Southeast 379 436 15,000 -1,620 Descending Tampa TRACON
20:51 28.4667 -83.0333 152° Southeast 372 428 13,400 -1,500 Descending Tampa TRACON
20:52 28.3667 -82.9667 150° Southeast 359 413 11,900 -1,320 Descending Tampa TRACON
20:53 28.2833 -82.9333 161° South 339 390 10,800 -1,200 Descending Tampa TRACON
20:54 28.2167 -82.8833 147° Southeast 311 358 9,600 -1,500 Descending Tampa TRACON
20:55 28.1333 -82.8333 152° Southeast 297 342 7,800 -1,380 Descending Tampa TRACON
20:56 28.0667 -82.8000 156° South 266 306 6,900 -1,200 Descending Tampa TRACON
20:57 28.0000 -82.7833 168° South 245 282 5,500 -1,380 Descending Tampa TRACON
20:58 27.9333 -82.7667 168° South 235 270 4,200 -900 Descending Tampa TRACON
20:59 27.8667 -82.7667 180° South 204 235 3,800 -600 Descending Tampa TRACON
21:00 27.8167 -82.7500 164° South 193 222 3,000 -780 Descending Tampa TRACON
21:01 27.8000 -82.7167 119° Southeast 189 217 2,300 -780 Descending Tampa TRACON
21:02 27.8333 -82.6833 41° Northeast 171 197 1,500 -840 Descending Tampa TRACON
21:03 27.8667 -82.6833 360° North 148 170 700 -840 Descending Tampa TRACON